AirNav   Everest Fuels
 
 1395 users online  

36FA Hawkeye Heli-Tours Heliport
Kissimmee, Florida, USA

GOING TO KISSIMMEE?


FAA INFORMATION EFFECTIVE 30 JANUARY 2020

Location

FAA Identifier: 36FA
Lat/Long: 28-20-00.4700N 081-29-15.9200W
28-20.007833N 081-29.265333W
28.3334639,-81.4877556
(estimated)
Elevation: 85 ft. / 26 m (estimated)
Variation: 05W (2000)
From city: 5 miles E of KISSIMMEE, FL
Time zone: UTC -5 (UTC -4 during Daylight Saving Time)
Zip code: 34746

Heliport Operations

Heliport use: Private use. Permission required prior to landing
Activation date: 05/2002
Control tower: no
ARTCC: JACKSONVILLE CENTER
FSS: SAINT PETERSBURG FLIGHT SERVICE STATION
Attendance: UNATNDD
Segmented circle: no

Heliport Communications

WX AWOS-3PT at ISM (4 nm SE): 128.775 (407-847-0533)
WX ASOS at MCO (11 nm NE): PHONE 407-855-5235
WX ASOS at ORL (15 nm NE): PHONE 407-658-6753

Nearby radio navigation aids

VOR radial/distance  VOR name  Freq  Var
ORLr213/14.9ORLANDO VORTAC112.2000E
LALr052/34.8LAKELAND VORTAC116.0001E

Heliport Services

Runway Information

Helipad H1

Dimensions: 25 x 25 ft. / 8 x 8 m
Surface: concrete
Latitude: 28-20.007833N
Longitude: 081-29.265333W
Elevation: 85.0 ft.
Traffic pattern: leftleft

Heliport Ownership and Management from official FAA records

Ownership: Privately-owned
Owner: HAWKEYE HELI-TOURS, LLC
5071 W IRLO BRONSON HWY
KISSIMMEE, FL 34746
Phone 407-310-4363
Manager: MADISON POTTER
5071 W IRLO BRONSON HWY
KISSIMMEE, FL 34746
Phone (859) 230-4111

Heliport Operational Statistics

Aircraft based on the field: 4
Single engine airplanes: 2
Helicopters: 2
    

Additional Remarks

FOR CD CTC ORLANDO APCH AT 407-852-7553.

Instrument Procedures

There are no published instrument procedures at 36FA.

Some nearby airports with instrument procedures:

KISM - Kissimmee Gateway Airport (4 nm SE)
KMCO - Orlando International Airport (11 nm NE)
KORL - Executive Airport (15 nm NE)
KGIF - Winter Haven Regional Airport (21 nm SW)
X04 - Orlando Apopka Airport (23 nm N)
 
Loc | Ops | Rwys | IFR | FBO | Links
Com | Nav | Svcs | Stats | Notes


 
Area around 36FA (Hawkeye Heli-Tours Heliport)
 
Road maps at: MapQuest Bing Google
 
Aerial photo
No photo
 
Sectional chart

 
Airport distance calculator
Flying to Hawkeye Heli-Tours Heliport? Find the distance to fly.

From to 36FA

Sunrise and sunset
Times for 26-Feb-2020
 Local
(UTC-5)
 Zulu
(UTC)
Morning civil twilight06:3111:31
Sunrise06:5511:55
Sunset18:2323:23
Evening civil twilight18:4723:47

Current date and time
Zulu (UTC)  26-Feb-2020 14:38:14
Local (UTC-5)  26-Feb-2020 09:38:14
 
METAR
KISM 
4nm SE 
261356Z 17009KT 10SM BKN120 21/18 A2993 RMK AO2 SLP137 T02110178 PNO $
KMCO 
10nm NE 
261353Z 17011KT 10SM SCT085 BKN250 22/17 A2992 RMK AO2 SLP129 T02220167
KORL 
15nm NE 
261353Z 18011KT 10SM CLR 22/16 A2991 RMK AO2 SLP131 T02220161
TAF
KISM 
4nm SE 
261129Z 2612/2712 16008KT P6SM SCT040 OVC090 FM261800 20013KT P6SM VCTS BKN035CB FM270000 28011KT P6SM SHRA BKN030 OVC060 FM270600 32011KT P6SM SCT030 OVC110
KMCO 
10nm NE 
261129Z 2612/2718 19008KT P6SM SCT040 BKN090 OVC120 FM261800 21014G20KT P6SM VCTS BKN040CB OVC060 FM270000 28011KT P6SM SHRA BKN030 OVC060 FM270600 32011KT P6SM SCT030 OVC110
NOTAMs
Click for the latest NOTAMs
NOTAMs are issued by the DoD/FAA and will open in a separate window not controlled by AirNav.

 

 
 

Would you like to see your business listed on this page?

 If your business provides an interesting product or service to pilots, flight crews, aircraft, or users of the Hawkeye Heli-Tours Heliport, you should consider listing it here.  To start the listing process, click on the button below
 
Add a business
 

Other Pages about Hawkeye Heli-Tours Heliport

Update a link
 
Copyright © AirNav, LLC. All rights reserved. Privacy Policy  Contact